Time;durP1;ratioP1;P1;durP2;ratioP2;P2;SDS_P1;SDS_P2;PMS_P1;PMS_P2;Temp;Humidity;BMP_temperature;BMP_pressure;BME280_temperature;BME280_humidity;BME280_pressure;Samples;Min_cycle;Max_cycle;Signal;HPM_P1;HPM_P2
2023/06/07 00:01:05;;;;;;;9.20;8.20;;;13.00;99.90;;;12.83;91.84;98044.69;5088258;28;20451;-72
2023/06/07 00:03:34;;;;;;;10.17;7.60;;;12.90;99.90;;;12.86;91.85;98048.84;5087288;28;20564;-74
2023/06/07 00:06:01;;;;;;;11.43;9.87;;;13.00;99.90;;;12.81;91.93;98056.81;5082371;28;20448;-72
2023/06/07 00:08:29;;;;;;;10.67;9.57;;;13.00;99.90;;;12.86;92.25;98057.78;5086769;28;20552;-73
2023/06/07 00:10:57;;;;;;;13.00;10.07;;;12.90;99.90;;;12.85;91.41;98044.47;5088251;28;20545;-75
2023/06/07 00:13:24;;;;;;;12.00;10.70;;;13.00;99.90;;;12.79;91.72;98050.78;5098887;28;20480;-69
2023/06/07 00:15:53;;;;;;;10.07;9.07;;;12.90;99.90;;;12.71;92.09;98047.38;5092927;28;20544;-68
2023/06/07 00:18:20;;;;;;;10.73;9.17;;;12.90;99.90;;;12.70;92.06;98040.28;5086909;28;20537;-74
2023/06/07 00:20:50;;;;;;;9.10;8.20;;;12.80;99.90;;;12.51;93.77;98044.06;5081524;28;20515;-69
2023/06/07 00:23:18;;;;;;;11.33;9.10;;;12.70;99.90;;;12.50;93.89;98045.97;5087306;28;20452;-70
2023/06/07 00:25:47;;;;;;;8.63;7.83;;;12.60;99.90;;;12.66;93.20;98038.25;5090319;28;21197;-69
2023/06/07 00:28:14;;;;;;;10.53;8.93;;;12.70;99.90;;;12.55;93.04;98043.38;5092321;28;20456;-76
2023/06/07 00:30:41;;;;;;;8.33;7.53;;;12.70;99.90;;;12.61;93.11;98044.34;5103468;28;20475;-75
2023/06/07 00:33:10;;;;;;;8.27;7.47;;;12.70;99.90;;;12.57;93.21;98041.25;5082623;28;20935;-67
2023/06/07 00:35:37;;;;;;;10.93;9.83;;;12.70;99.90;;;12.02;93.00;97941.91;5084027;28;20603;-72
2023/06/07 00:38:06;;;;;;;9.10;7.77;;;12.70;99.90;;;12.52;92.86;98037.59;5082608;28;20475;-75
2023/06/07 00:40:34;;;;;;;8.87;8.03;;;12.70;99.90;;;12.33;94.38;98041.16;5082383;28;20467;-69
2023/06/07 00:43:01;;;;;;;8.50;7.80;;;12.60;99.90;;;12.41;94.22;98045.44;5089260;27;20466;-73
2023/06/07 00:45:28;;;;;;;8.80;7.80;;;12.50;99.90;;;12.36;93.90;98029.03;5087215;28;20494;-69
2023/06/07 00:47:56;;;;;;;9.10;8.30;;;12.50;99.90;;;12.31;94.09;98045.13;5070913;28;20520;-71
2023/06/07 00:50:26;;;;;;;9.10;8.00;;;12.50;99.90;;;12.34;93.93;98047.38;5094739;28;20456;-69
2023/06/07 00:52:54;;;;;;;9.13;8.17;;;12.50;99.90;;;12.25;94.56;98043.34;5081279;28;20955;-68
2023/06/07 00:55:22;;;;;;;8.67;7.80;;;12.40;99.90;;;12.19;94.30;98037.75;5083998;28;20467;-71
2023/06/07 00:57:50;;;;;;;10.50;9.50;;;12.40;99.90;;;12.21;94.02;98055.66;5089108;28;20472;-67
2023/06/07 01:00:18;;;;;;;10.47;8.93;;;12.30;99.90;;;11.97;94.73;98031.09;5083029;28;20531;-69
2023/06/07 01:05:28;;;;;;;9.70;8.67;;;12.10;99.90;;;11.96;95.59;98034.84;5324543;22;20593;-76
2023/06/07 01:07:55;;;;;;;9.47;8.37;;;12.10;99.90;;;11.91;96.23;98040.94;5011908;28;20557;-68
2023/06/07 01:10:23;;;;;;;11.30;9.30;;;12.10;99.90;;;12.01;95.10;98037.72;5021475;28;20458;-69
2023/06/07 01:12:54;;;;;;;10.57;9.47;;;12.20;99.90;;;12.03;94.63;98031.06;5008093;28;20490;-69
2023/06/07 01:15:22;;;;;;;11.40;10.33;;;12.20;99.90;;;11.89;94.61;98029.50;5023230;28;20982;-70
2023/06/07 01:17:51;;;;;;;9.73;8.73;;;12.10;99.90;;;11.82;95.29;98039.56;5027614;28;20481;-68
2023/06/07 01:20:23;;;;;;;10.83;9.57;;;12.00;99.90;;;11.88;95.45;98038.69;5026306;28;20458;-70
2023/06/07 01:22:56;;;;;;;11.77;10.67;;;12.00;99.90;;;11.71;96.65;98036.56;5026551;28;20953;-70
2023/06/07 01:25:26;;;;;;;13.50;10.30;;;11.90;99.90;;;11.69;97.01;98035.09;5033077;28;20973;-67
2023/06/07 01:27:56;;;;;;;11.83;10.63;;;11.90;99.90;;;11.81;96.58;98033.34;5028889;28;20465;-71
2023/06/07 01:30:24;;;;;;;12.70;11.37;;;11.90;99.90;;;11.68;96.21;98033.47;5023330;28;20570;-69
2023/06/07 01:32:53;;;;;;;11.80;10.60;;;11.90;99.90;;;11.74;97.00;98038.81;5008986;28;20493;-67
2023/06/07 01:35:20;;;;;;;11.90;10.80;;;11.90;99.90;;;11.77;95.91;98029.44;5011231;28;20473;-68
2023/06/07 01:37:49;;;;;;;12.70;11.40;;;11.90;99.90;;;11.64;96.99;98022.25;5013885;28;20470;-68
2023/06/07 01:40:20;;;;;;;11.60;10.50;;;11.90;99.90;;;11.45;97.77;98010.56;5034946;28;20476;-68
2023/06/07 01:42:49;;;;;;;13.53;10.37;;;11.70;99.90;;;11.56;97.61;98028.75;5031681;28;20469;-67
2023/06/07 01:45:17;;;;;;;11.77;10.53;;;11.70;99.90;;;11.75;96.79;98026.09;5013447;28;20762;-72
2023/06/07 01:47:45;;;;;;;12.17;10.93;;;11.90;99.90;;;11.76;96.24;98025.88;5029842;28;20877;-68
2023/06/07 01:50:12;;;;;;;12.17;10.97;;;11.90;99.90;;;11.78;96.42;98033.78;5027919;28;20942;-67
2023/06/07 01:52:39;;;;;;;11.67;10.47;;;11.90;99.90;;;11.83;96.87;98027.69;5015623;28;20446;-67
2023/06/07 01:55:08;;;;;;;12.53;11.23;;;11.90;99.90;;;11.93;96.68;98033.41;5011532;28;20458;-71
2023/06/07 01:57:44;;;;;;;11.60;10.50;;;12.00;99.90;;;12.07;95.62;98026.03;5029954;28;20453;-73
2023/06/07 02:00:26;;;;;;;14.33;11.43;;;12.20;99.90;;;12.02;95.59;98028.56;5026938;28;20717;-67
2023/06/07 02:03:00;;;;;;;11.73;10.53;;;12.20;99.90;;;12.07;96.40;98020.63;5026296;28;20509;-74
2023/06/07 02:05:32;;;;;;;11.10;10.00;;;12.20;99.90;;;11.99;96.86;98019.00;5009695;28;20462;-72
2023/06/07 02:08:09;;;;;;;11.93;10.73;;;12.20;99.90;;;11.60;96.13;97945.28;5028124;28;20482;-70
2023/06/07 02:10:39;;;;;;;11.70;10.57;;;12.20;99.90;;;12.20;95.94;98016.91;5028096;28;20556;-72
2023/06/07 02:13:07;;;;;;;12.40;11.10;;;12.20;99.90;;;12.29;94.98;98012.03;5014187;28;20470;-68
2023/06/07 02:15:36;;;;;;;10.73;9.73;;;12.40;99.90;;;12.28;94.92;98015.78;5026998;28;20496;-69
2023/06/07 02:18:03;;;;;;;10.53;9.53;;;12.40;99.90;;;12.23;94.89;98007.53;5012564;28;20552;-70
2023/06/07 02:20:33;;;;;;;14.13;10.50;;;12.40;99.90;;;12.19;95.99;98024.19;5012909;28;20470;-70
2023/06/07 02:23:00;;;;;;;11.50;10.30;;;12.40;99.90;;;12.00;95.60;97965.66;5028845;28;20974;-72
2023/06/07 02:25:28;;;;;;;10.77;9.77;;;12.50;99.90;;;12.41;95.50;98015.63;5016895;28;20525;-69
2023/06/07 02:27:55;;;;;;;12.67;11.27;;;12.50;99.90;;;12.39;95.59;98017.75;5027556;28;20465;-68
2023/06/07 02:30:22;;;;;;;11.57;10.47;;;12.50;99.90;;;12.41;96.29;98015.63;5025685;28;20473;-69
2023/06/07 02:32:54;;;;;;;11.67;10.50;;;12.60;99.90;;;12.53;96.32;98025.72;5011443;28;20525;-68
2023/06/07 02:35:23;;;;;;;11.90;10.70;;;12.60;99.90;;;12.72;94.21;98024.63;5022089;28;20473;-68
2023/06/07 02:37:50;;;;;;;10.13;9.13;;;12.80;99.90;;;12.74;93.75;98008.94;5009586;28;20464;-68
2023/06/07 02:40:18;;;;;;;11.43;10.33;;;12.90;99.90;;;12.81;92.66;98045.97;5014492;28;20458;-68
2023/06/07 02:42:45;;;;;;;11.73;10.63;;;13.00;99.90;;;12.89;92.71;98032.94;5028579;28;20549;-69
2023/06/07 02:45:14;;;;;;;10.73;9.73;;;13.00;99.90;;;12.84;92.60;98018.41;5024877;28;20542;-68
2023/06/07 02:47:41;;;;;;;11.60;10.33;;;13.10;99.90;;;12.88;91.58;98035.88;5026566;28;20471;-68
2023/06/07 02:50:11;;;;;;;12.33;11.13;;;13.10;99.90;;;12.93;91.52;98029.78;5027512;28;20512;-68
2023/06/07 02:52:38;;;;;;;11.27;10.10;;;13.10;99.90;;;13.06;90.72;98029.56;5009908;28;20455;-67
2023/06/07 02:55:07;;;;;;;12.77;11.47;;;13.20;99.90;;;13.00;90.67;98023.19;5029203;28;20537;-68
2023/06/07 02:57:35;;;;;;;10.43;9.40;;;13.20;99.90;;;13.11;89.93;98018.00;5022211;28;20529;-70
2023/06/07 03:00:10;;;;;;;11.37;10.20;;;13.30;99.90;;;13.24;89.71;98025.94;5009322;28;20478;-68
2023/06/07 03:02:37;;;;;;;12.43;11.00;;;13.40;99.90;;;13.25;88.86;98014.03;5011299;28;20531;-68
2023/06/07 03:05:06;;;;;;;12.47;11.37;;;13.40;99.90;;;13.31;88.77;98031.28;5008374;28;20973;-71
2023/06/07 03:07:35;;;;;;;13.47;12.07;;;13.50;99.90;;;13.35;88.98;98037.06;5010377;28;20481;-69
2023/06/07 03:10:03;;;;;;;12.30;11.00;;;13.50;99.90;;;13.30;88.28;98035.88;5028014;28;20568;-69
2023/06/07 03:12:31;;;;;;;12.27;10.77;;;13.60;99.90;;;13.21;89.26;98031.84;5028825;28;20462;-69
2023/06/07 03:14:58;;;;;;;13.07;11.77;;;13.50;99.90;;;13.38;88.46;98031.16;5009956;28;20459;-69
2023/06/07 03:17:25;;;;;;;13.47;11.33;;;13.50;99.90;;;13.34;88.88;98032.69;5025660;28;20899;-69
2023/06/07 03:19:53;;;;;;;12.60;11.40;;;13.60;99.90;;;13.55;87.55;98039.50;5025233;28;20482;-68
2023/06/07 03:22:21;;;;;;;11.53;10.30;;;13.70;99.90;;;13.64;87.48;98038.06;5010210;28;20773;-68
2023/06/07 03:24:52;;;;;;;8.87;8.07;;;13.70;99.90;;;13.72;86.33;98039.59;5027955;28;20552;-68
2023/06/07 03:27:22;;;;;;;8.10;7.40;;;13.80;99.80;;;13.80;85.81;98030.28;5021920;28;20499;-68
2023/06/07 03:29:49;;;;;;;7.60;6.90;;;13.90;99.10;;;13.73;85.20;98022.28;5028104;28;20448;-68
2023/06/07 03:32:17;;;;;;;8.40;7.70;;;14.00;98.60;;;13.69;85.40;98035.50;5022578;28;20460;-69
2023/06/07 03:34:44;;;;;;;7.00;6.37;;;13.90;97.80;;;13.67;85.36;98032.19;5031499;28;21015;-68
2023/06/07 03:37:11;;;;;;;6.77;6.07;;;13.90;97.50;;;13.60;85.40;98018.72;5010694;28;20865;-69
2023/06/07 03:39:38;;;;;;;7.50;6.80;;;13.90;97.50;;;13.80;84.73;98025.69;5009658;28;20603;-67
2023/06/07 03:42:08;;;;;;;7.77;6.97;;;14.00;96.90;;;13.78;85.08;98033.25;5027850;28;20588;-68
2023/06/07 03:44:35;;;;;;;7.83;7.13;;;14.00;97.00;;;13.87;84.57;98031.00;5025198;28;20456;-67
2023/06/07 03:47:03;;;;;;;7.47;6.87;;;14.10;96.70;;;13.78;84.55;98030.53;5005791;28;20788;-67
2023/06/07 03:49:30;;;;;;;6.23;5.73;;;14.10;96.00;;;13.56;84.38;98020.25;5009681;28;20468;-68
2023/06/07 03:51:57;;;;;;;7.40;6.70;;;14.00;95.50;;;13.83;83.99;98035.25;5025389;28;20476;-67
2023/06/07 03:54:24;;;;;;;6.70;6.20;;;14.00;95.90;;;13.87;83.47;98031.81;5031479;28;20474;-68
2023/06/07 03:56:52;;;;;;;8.33;7.63;;;14.10;95.90;;;13.84;83.58;98037.72;5023627;28;20463;-69
2023/06/07 03:59:20;;;;;;;7.60;6.83;;;14.10;95.80;;;13.73;83.34;98035.84;5026198;28;21117;-67
2023/06/07 04:01:49;;;;;;;6.83;6.23;;;14.10;94.90;;;13.71;83.33;98043.38;5008270;28;20471;-69
2023/06/07 04:04:16;;;;;;;6.40;5.80;;;14.10;94.50;;;13.68;83.28;98044.72;5026047;28;20560;-68
2023/06/07 04:06:44;;;;;;;7.70;6.90;;;14.00;95.00;;;13.75;82.99;98039.16;5016064;28;20552;-67
2023/06/07 04:09:11;;;;;;;7.23;6.63;;;14.00;95.10;;;13.94;81.85;98041.75;5008218;28;20518;-68
2023/06/07 04:11:38;;;;;;;6.77;6.20;;;14.10;94.70;;;14.04;81.91;98042.00;5025029;28;20470;-68
2023/06/07 04:14:05;;;;;;;7.63;6.93;;;14.20;94.70;;;14.10;81.33;98035.59;5027087;28;20616;-68
2023/06/07 04:16:34;;;;;;;6.90;6.30;;;14.30;94.00;;;14.11;81.41;98044.59;5009719;28;20521;-68
2023/06/07 04:19:01;;;;;;;7.80;7.10;;;14.40;93.90;;;14.10;81.70;98038.31;5028400;28;20545;-70
2023/06/07 04:21:28;;;;;;;9.30;8.40;;;14.40;93.90;;;14.24;81.50;98043.50;5026328;28;20459;-68
2023/06/07 04:23:57;;;;;;;7.37;6.67;;;14.40;94.30;;;14.63;79.74;98043.75;5024508;28;21017;-67
2023/06/07 04:26:24;;;;;;;7.77;7.10;;;14.60;93.90;;;14.59;79.78;98037.97;5002580;28;20556;-68
2023/06/07 04:28:56;;;;;;;6.27;5.67;;;14.70;93.60;;;14.70;79.36;98041.72;5023852;28;20822;-67
2023/06/07 04:31:29;;;;;;;8.23;7.13;;;14.90;92.70;;;14.35;81.09;98052.69;5027670;28;20467;-67
2023/06/07 04:34:01;;;;;;;7.00;6.30;;;14.60;93.20;;;14.85;78.86;98043.94;5024603;28;20549;-68
2023/06/07 04:36:29;;;;;;;7.20;6.50;;;14.80;93.00;;;14.58;78.34;97994.72;5024012;28;20471;-68
2023/06/07 04:38:57;;;;;;;6.83;6.23;;;14.90;92.40;;;15.04;77.86;98051.06;5023416;28;20479;-69
2023/06/07 04:41:30;;;;;;;7.40;6.70;;;15.20;91.80;;;15.11;77.47;98038.16;5004967;28;20641;-69
2023/06/07 04:44:00;;;;;;;6.40;5.80;;;15.20;91.70;;;15.48;76.04;98037.69;5014154;28;20460;-70
2023/06/07 04:46:28;;;;;;;6.30;5.70;;;15.50;91.50;;;15.83;74.89;98028.44;5009970;28;20466;-69
2023/06/07 04:48:58;;;;;;;8.63;6.77;;;15.80;90.80;;;15.90;74.30;98044.63;5036389;28;20484;-69
2023/06/07 04:51:29;;;;;;;6.97;6.40;;;16.20;89.10;;;15.39;76.39;98031.00;5024236;28;20511;-68
2023/06/07 04:53:58;;;;;;;7.97;7.17;;;16.10;89.50;;;15.53;75.81;98039.69;5008608;28;20546;-70
2023/06/07 04:56:27;;;;;;;7.50;6.53;;;16.00;90.00;;;16.00;74.73;98044.00;5026028;28;20517;-77
2023/06/07 04:58:55;;;;;;;7.20;6.60;;;16.00;90.10;;;16.10;73.50;98043.31;5024608;28;20569;-69
2023/06/07 05:01:22;;;;;;;6.80;6.30;;;16.20;89.30;;;16.07;73.88;98044.63;5005662;28;20566;-71
2023/06/07 05:03:50;;;;;;;6.80;6.10;;;16.20;89.10;;;16.20;73.27;98048.88;5026485;28;20558;-71
2023/06/07 05:06:19;;;;;;;6.67;6.07;;;16.30;88.90;;;16.18;73.57;98045.59;5018975;28;20463;-71
2023/06/07 05:08:47;;;;;;;6.77;6.17;;;16.30;89.10;;;16.23;72.99;98047.56;5020668;28;20529;-68
2023/06/07 05:11:14;;;;;;;7.00;6.40;;;16.40;88.60;;;16.71;71.80;98050.63;4998446;28;20477;-72
2023/06/07 05:13:41;;;;;;;7.40;6.70;;;16.60;88.50;;;17.34;69.22;98052.09;5022076;28;20460;-71
2023/06/07 05:16:15;;;;;;;7.10;6.50;;;17.30;87.10;;;17.22;68.83;97986.75;5021992;28;22401;-75
2023/06/07 05:18:46;;;;;;;6.90;6.30;;;17.80;85.80;;;17.79;67.69;98050.03;5022004;28;20461;-64
2023/06/07 05:21:14;;;;;;;6.77;6.17;;;18.00;84.60;;;17.38;68.51;98028.69;5024217;28;20545;-68
2023/06/07 05:23:42;;;;;;;7.97;7.20;;;18.10;84.20;;;16.87;71.00;98046.16;5006057;28;20540;-70
2023/06/07 05:26:10;;;;;;;7.33;6.60;;;17.50;85.00;;;16.48;72.38;98052.53;5003526;28;21004;-71
2023/06/07 05:28:37;;;;;;;7.27;6.67;;;17.20;85.80;;;16.55;72.51;98055.91;5005008;28;20638;-71
2023/06/07 05:31:04;;;;;;;10.40;7.03;;;17.00;86.30;;;16.65;72.02;98057.91;5017340;28;20460;-70
2023/06/07 05:33:32;;;;;;;7.77;7.07;;;17.00;86.50;;;17.03;70.90;98057.25;5018783;28;20466;-71
2023/06/07 05:35:59;;;;;;;8.03;7.30;;;17.20;86.40;;;17.90;68.12;98053.66;5025391;28;20545;-70
2023/06/07 05:38:27;;;;;;;6.20;5.63;;;17.80;85.70;;;18.58;65.04;98057.63;5024626;28;20461;-70
2023/06/07 05:40:55;;;;;;;9.97;8.00;;;18.60;84.20;;;19.01;63.48;98057.53;5002873;28;21078;-71
2023/06/07 05:43:23;;;;;;;7.80;7.00;;;19.20;82.30;;;17.78;66.66;98060.13;5008950;28;20512;-72
2023/06/07 05:45:50;;;;;;;6.77;6.17;;;18.60;82.20;;;17.91;66.23;98060.75;5022985;28;20457;-72
2023/06/07 05:48:18;;;;;;;7.87;7.07;;;18.10;82.90;;;18.25;64.90;98058.56;5024238;28;20466;-74
2023/06/07 05:50:45;;;;;;;7.77;7.07;;;18.40;82.80;;;18.54;64.54;98065.53;5023124;28;20468;-71
2023/06/07 05:53:12;;;;;;;8.07;7.30;;;18.60;82.30;;;18.87;63.25;98062.66;5024886;28;20925;-71
2023/06/07 05:55:39;;;;;;;7.90;7.13;;;18.90;81.80;;;19.11;62.16;98063.03;5025309;28;20457;-72
2023/06/07 05:58:08;;;;;;;9.20;7.43;;;19.20;81.20;;;18.93;62.67;98064.31;5006390;28;20461;-71
2023/06/07 06:00:35;;;;;;;8.13;7.43;;;19.30;80.70;;;18.30;64.20;98071.44;5002678;28;20540;-72
2023/06/07 06:03:04;;;;;;;7.83;7.13;;;19.10;80.40;;;18.61;64.11;98063.38;5023610;28;20465;-71
2023/06/07 06:05:31;;;;;;;7.40;6.70;;;18.90;81.40;;;18.57;64.52;98062.25;5012458;28;20469;-70
2023/06/07 06:07:58;;;;;;;9.70;8.30;;;18.90;81.50;;;18.91;63.92;98064.59;5025054;28;20462;-71
2023/06/07 06:10:26;;;;;;;9.07;8.00;;;19.10;82.00;;;20.08;60.74;98055.94;5019255;28;20461;-71
2023/06/07 06:12:53;;;;;;;9.20;8.40;;;19.90;81.10;;;20.72;58.79;98060.16;5028192;28;20456;-69
2023/06/07 06:15:22;;;;;;;9.67;8.67;;;20.50;79.70;;;21.56;55.72;98050.34;5010428;28;21050;-71
2023/06/07 06:17:53;;;;;;;9.90;8.90;;;21.40;77.90;;;21.06;56.94;98062.22;5027557;28;20548;-71
2023/06/07 06:20:21;;;;;;;8.50;7.70;;;21.60;76.00;;;21.54;56.00;98052.56;5011180;28;20469;-73
2023/06/07 06:22:48;;;;;;;8.87;8.07;;;21.80;75.30;;;21.70;54.70;98056.84;5037839;28;20468;-70
2023/06/07 06:25:15;;;;;;;8.80;8.00;;;22.00;74.50;;;21.20;56.03;98059.66;5007708;28;20455;-72
2023/06/07 06:27:43;;;;;;;8.63;7.83;;;21.80;73.80;;;19.35;61.36;98062.53;5015062;28;20453;-69
2023/06/07 06:30:11;;;;;;;8.50;7.70;;;20.40;75.60;;;19.12;63.06;98067.41;5027611;28;20464;-70
2023/06/07 06:32:40;;;;;;;9.90;8.90;;;19.70;78.50;;;18.58;64.83;98069.41;5027969;28;20460;-70
2023/06/07 06:35:08;;;;;;;9.37;8.47;;;19.20;80.10;;;18.62;65.43;98059.56;5023496;28;20469;-71
2023/06/07 06:37:35;;;;;;;13.77;10.10;;;19.00;81.20;;;19.06;63.63;98055.63;5016105;28;20698;-72
2023/06/07 06:40:05;;;;;;;14.50;9.70;;;19.20;81.00;;;19.06;63.49;98060.28;5030319;28;20477;-73
2023/06/07 06:42:32;;;;;;;12.93;9.73;;;19.20;80.90;;;18.96;63.44;98004.38;5024692;28;20469;-71
2023/06/07 06:45:00;;;;;;;9.67;8.77;;;19.40;81.20;;;19.67;62.55;98055.97;5027362;28;20586;-71
2023/06/07 06:47:27;;;;;;;9.83;8.93;;;19.60;81.30;;;20.02;61.49;98059.81;5032705;28;20446;-70
2023/06/07 06:49:55;;;;;;;11.30;9.00;;;19.90;80.50;;;20.21;60.74;98061.97;5025128;28;20447;-70
2023/06/07 06:52:25;;;;;;;10.40;8.90;;;20.20;80.10;;;20.21;60.39;98057.31;5014650;28;20995;-70
2023/06/07 06:54:52;;;;;;;9.73;8.73;;;20.30;79.40;;;20.50;59.85;98066.81;5020422;28;20466;-71
2023/06/07 06:57:19;;;;;;;11.23;8.73;;;20.50;79.30;;;20.28;59.77;98050.69;5026861;28;20515;-70
2023/06/07 06:59:46;;;;;;;9.00;8.03;;;20.50;78.50;;;20.36;59.92;98064.66;5026416;28;20478;-72
2023/06/07 07:02:13;;;;;;;9.00;8.10;;;20.60;78.70;;;20.46;59.83;98073.97;5014954;28;20462;-71
2023/06/07 07:04:41;;;;;;;8.03;7.10;;;20.80;78.40;;;20.67;59.21;98063.75;5035420;28;20488;-71
2023/06/07 07:07:09;;;;;;;8.30;7.40;;;20.90;78.10;;;20.48;59.48;98069.03;5026648;28;20442;-71
2023/06/07 07:09:36;;;;;;;9.13;8.23;;;20.90;78.00;;;20.87;58.82;98073.00;5008289;28;20446;-71
2023/06/07 07:12:05;;;;;;;9.47;8.30;;;21.10;77.80;;;20.59;59.39;98073.38;5009470;28;20457;-73
2023/06/07 07:14:32;;;;;;;10.27;8.07;;;21.10;77.50;;;21.39;57.02;98062.56;5010344;28;20449;-74
2023/06/07 07:17:00;;;;;;;7.67;6.97;;;21.40;77.00;;;21.32;57.58;98073.84;5025480;28;20468;-71
2023/06/07 07:19:27;;;;;;;8.93;8.03;;;21.60;76.60;;;21.18;57.40;98072.84;5006468;28;20459;-73
2023/06/07 07:21:55;;;;;;;8.80;7.90;;;21.60;75.80;;;21.32;57.12;98070.31;5024564;28;20722;-72
2023/06/07 07:24:24;;;;;;;8.30;7.50;;;21.50;75.90;;;21.54;56.39;98064.38;5012029;28;20464;-72
2023/06/07 07:26:51;;;;;;;8.37;7.57;;;21.60;75.50;;;20.46;58.85;98068.47;5004633;28;20453;-71
2023/06/07 07:29:19;;;;;;;7.77;7.07;;;21.00;75.80;;;21.11;56.97;98064.13;5020737;28;20516;-71
2023/06/07 07:31:46;;;;;;;8.20;7.40;;;21.10;76.00;;;22.10;54.55;98069.72;5010207;28;20804;-71
2023/06/07 07:34:16;;;;;;;8.50;7.70;;;21.80;75.30;;;21.93;54.89;98057.22;5010121;28;20558;-70
2023/06/07 07:36:44;;;;;;;8.57;7.50;;;21.90;74.80;;;21.29;56.56;98073.59;5027417;28;20971;-71
2023/06/07 07:39:11;;;;;;;8.40;7.47;;;21.60;74.60;;;21.38;56.53;98063.66;5030978;28;20936;-72
2023/06/07 07:41:41;;;;;;;9.30;7.70;;;21.50;74.70;;;22.34;53.24;98056.78;5010282;28;20589;-71
2023/06/07 07:44:08;;;;;;;7.73;7.03;;;22.00;73.80;;;22.89;52.17;98069.38;5027770;28;20457;-70
2023/06/07 07:46:36;;;;;;;6.73;6.13;;;22.60;72.60;;;23.42;50.79;98073.06;5007342;28;20451;-70
2023/06/07 07:49:04;;;;;;;7.03;6.40;;;23.20;71.50;;;23.02;51.42;98067.00;5024266;28;20513;-72
2023/06/07 07:51:31;;;;;;;10.07;6.60;;;23.10;70.50;;;23.14;50.65;98053.63;5025475;28;20452;-72
2023/06/07 07:53:58;;;;;;;7.73;7.03;;;23.30;69.50;;;23.48;49.85;98065.53;5026349;28;20518;-71
2023/06/07 07:56:26;;;;;;;7.23;6.53;;;23.50;69.30;;;23.35;50.25;98064.38;5025838;28;20486;-83
2023/06/07 07:58:55;;;;;;;7.07;6.37;;;23.60;68.60;;;23.42;49.86;98047.44;5024835;28;20577;-72
2023/06/07 08:01:22;;;;;;;6.40;5.80;;;23.60;68.20;;;23.96;48.64;98056.19;5021850;28;20905;-73
2023/06/07 08:03:50;;;;;;;6.60;6.00;;;23.80;67.60;;;23.33;49.55;98014.25;5017925;28;20841;-72
2023/06/07 08:06:18;;;;;;;7.23;6.47;;;24.00;66.80;;;23.56;49.75;98053.00;5008455;28;20569;-69
2023/06/07 08:08:48;;;;;;;6.50;5.93;;;23.70;67.20;;;23.46;49.24;98054.00;5026226;28;20476;-72
2023/06/07 08:11:15;;;;;;;6.50;5.80;;;23.70;66.50;;;23.32;49.91;98054.75;5008866;28;20517;-73
2023/06/07 08:13:43;;;;;;;6.07;5.57;;;23.40;66.40;;;23.21;49.48;98058.75;5008677;28;20455;-72
2023/06/07 08:16:12;;;;;;;5.83;5.30;;;23.40;66.10;;;23.10;49.46;98035.22;5012246;28;20456;-70
2023/06/07 08:18:39;;;;;;;5.80;5.30;;;23.30;65.90;;;23.15;49.52;98049.75;5024778;28;20448;-72
2023/06/07 08:21:07;;;;;;;6.77;6.17;;;23.30;66.20;;;22.91;49.69;98055.31;5020963;28;21175;-72
2023/06/07 08:23:34;;;;;;;6.47;5.80;;;23.30;65.40;;;23.11;49.63;98056.94;5008353;28;20961;-72
2023/06/07 08:26:02;;;;;;;6.37;5.80;;;23.30;65.80;;;22.32;51.23;97997.66;5008190;28;20444;-73
2023/06/07 08:28:29;;;;;;;6.93;6.33;;;23.00;66.60;;;22.98;50.28;98046.69;5021809;28;20518;-70
2023/06/07 08:30:56;;;;;;;6.07;5.57;;;23.10;66.50;;;23.37;49.58;98055.81;5024510;28;20487;-71
2023/06/07 08:33:25;;;;;;;5.97;5.47;;;23.10;66.40;;;23.40;49.55;98044.19;5025671;28;20533;-71
2023/06/07 08:35:52;;;;;;;6.73;6.13;;;23.30;66.50;;;23.30;49.45;98056.19;5026244;28;20832;-70
2023/06/07 08:38:19;;;;;;;6.63;5.93;;;23.30;66.00;;;23.44;49.23;98046.03;5025496;28;20451;-70
2023/06/07 08:40:47;;;;;;;6.60;6.00;;;23.40;66.00;;;23.26;49.75;98044.06;5026647;28;20562;-71
2023/06/07 08:43:14;;;;;;;7.27;6.67;;;23.40;65.70;;;23.06;50.45;98035.00;5025490;28;21035;-72
2023/06/07 08:45:43;;;;;;;6.80;6.10;;;23.30;65.90;;;23.10;49.84;98047.03;5024853;28;20513;-72
2023/06/07 08:48:13;;;;;;;7.03;6.43;;;23.30;65.80;;;23.04;50.10;98051.00;5024348;28;20896;-71
2023/06/07 08:50:43;;;;;;;6.53;6.03;;;23.30;65.70;;;23.02;50.30;98058.75;5003534;28;20451;-70
2023/06/07 08:53:14;;;;;;;6.80;6.10;;;23.30;65.90;;;23.52;48.58;98049.22;5019971;28;20513;-71
2023/06/07 08:55:42;;;;;;;6.97;6.37;;;23.30;65.20;;;23.56;49.15;98042.81;5025797;28;20451;-70
2023/06/07 08:58:10;;;;;;;6.73;6.13;;;23.50;65.30;;;22.96;49.70;98048.91;5024942;28;20544;-70
2023/06/07 09:00:38;;;;;;;5.63;5.13;;;23.30;64.60;;;23.18;49.66;98038.13;5022072;28;20478;-70
2023/06/07 09:03:05;;;;;;;5.57;5.07;;;23.30;65.20;;;23.43;49.95;98049.91;5022372;28;20522;-71
2023/06/07 09:05:33;;;;;;;7.70;6.90;;;23.50;65.90;;;22.92;50.03;98040.44;5025217;28;20480;-71
2023/06/07 09:08:02;;;;;;;6.43;5.83;;;23.30;65.00;;;23.11;49.88;98047.88;5004444;28;20467;-74
2023/06/07 09:10:30;;;;;;;6.43;5.93;;;23.20;65.50;;;23.12;49.38;98044.81;5024523;28;20458;-71
2023/06/07 09:12:57;;;;;;;10.57;6.17;;;23.20;64.80;;;23.35;49.02;98053.34;5014750;28;20469;-72
2023/06/07 09:15:24;;;;;;;6.53;5.83;;;23.30;65.20;;;23.59;48.54;98055.19;5026359;28;20577;-72
2023/06/07 09:17:53;;;;;;;6.20;5.60;;;23.50;64.70;;;23.80;47.12;98050.13;5018458;28;20454;-71
2023/06/07 09:20:22;;;;;;;5.53;5.03;;;23.70;63.50;;;23.90;48.00;98049.16;5022030;28;20475;-72
2023/06/07 09:23:08;;;;;;;6.40;5.80;;;23.90;64.10;;;23.37;48.63;98058.56;5011134;28;20489;-71
2023/06/07 09:25:37;;;;;;;6.20;5.70;;;23.70;63.80;;;23.26;49.30;98055.09;5007558;28;20516;-71
2023/06/07 09:28:08;;;;;;;7.40;6.70;;;23.50;64.40;;;22.93;49.29;98051.13;5028660;28;20474;-72
2023/06/07 09:30:36;;;;;;;6.37;5.87;;;23.20;63.90;;;23.11;49.30;98054.19;5020092;28;20462;-71
2023/06/07 09:33:04;;;;;;;6.70;6.17;;;23.10;64.20;;;23.90;47.58;98046.41;4999717;28;20516;-72
2023/06/07 09:35:37;;;;;;;6.90;6.30;;;23.60;63.60;;;24.01;46.54;98027.72;5026341;28;20446;-72
2023/06/07 09:38:06;;;;;;;6.80;6.10;;;23.90;62.80;;;23.33;47.95;98047.31;5010175;28;20551;-70
2023/06/07 09:40:33;;;;;;;6.07;5.50;;;23.80;62.30;;;24.51;46.23;98035.34;5033636;28;20481;-72
2023/06/07 09:43:01;;;;;;;6.50;6.00;;;24.20;62.60;;;25.14;44.78;98038.44;5028118;28;20477;-71
2023/06/07 09:45:29;;;;;;;6.60;6.00;;;24.70;61.90;;;24.72;44.75;98037.69;5023148;28;20447;-70
2023/06/07 09:48:04;;;;;;;7.00;6.30;;;24.90;60.50;;;24.71;44.80;98036.03;5024757;28;20558;-71
2023/06/07 09:50:31;;;;;;;5.90;5.40;;;24.80;60.30;;;25.45;43.43;98037.72;5024796;28;20462;-69
2023/06/07 09:53:01;;;;;;;4.40;4.10;;;25.20;60.50;;;25.61;41.78;98031.84;5026168;28;20467;-70
2023/06/07 09:55:31;;;;;;;5.27;4.87;;;25.50;58.40;;;25.67;43.11;98027.81;5021913;28;20555;-71
2023/06/07 09:57:59;;;;;;;4.77;4.37;;;25.60;59.20;;;24.77;42.14;98022.97;5015793;28;20454;-71
2023/06/07 10:00:27;;;;;;;4.93;4.63;;;25.00;57.10;;;25.09;43.44;98023.91;5037329;28;20481;-72
2023/06/07 10:03:06;;;;;;;5.23;4.83;;;25.00;58.50;;;24.70;41.99;98023.34;5032936;28;20470;-67
2023/06/07 10:05:34;;;;;;;5.40;5.00;;;24.80;56.60;;;24.56;41.81;98024.19;5035961;28;20539;-67
2023/06/07 10:08:01;;;;;;;5.10;4.70;;;24.70;56.50;;;23.81;43.18;98032.47;5010044;28;20451;-69
2023/06/07 10:10:30;;;;;;;5.73;5.20;;;24.10;56.50;;;24.37;42.51;98012.44;5009129;28;20450;-68
2023/06/07 10:12:59;;;;;;;5.27;4.87;;;24.30;57.00;;;24.55;41.72;98019.78;5011126;28;20605;-70
2023/06/07 10:15:29;;;;;;;4.70;4.30;;;24.50;56.10;;;24.40;41.54;98017.34;5014478;28;20983;-70
2023/06/07 10:18:00;;;;;;;5.00;4.53;;;24.60;55.60;;;23.86;41.87;98017.75;5035164;28;20954;-71
2023/06/07 10:20:31;;;;;;;5.17;4.77;;;24.00;54.90;;;24.58;41.23;98013.66;5034335;28;20481;-71
2023/06/07 10:23:04;;;;;;;5.00;4.60;;;24.40;55.50;;;25.09;39.81;98013.66;5010814;28;20836;-72